Terminal Aerodrome Forecast
Issued by NWS Knoxville/Tri Cities, TN

Home | Current Version | Previous Version | Text Only | Print | Product List | Glossary On
Versions: 1 2 3 4 5 6 7 8 9 10 11 12 13 14 15 16 17 18 19 20 21 22 23 24 25 26 27 28 29
000
FTUS44 KMRX 212320
TAFCHA
TAF
KCHA 212320Z 2200/2224 00000KT P6SM BKN030
     FM220300 09003KT P6SM OVC025
     FM220900 VRB03KT P6SM OVC015
     FM221800 15004KT P6SM OVC040=

USA.gov is the U.S. government's official web portal to all federal, state and local government web resources and services.